Time;durP1;ratioP1;P1;durP2;ratioP2;P2;SDS_P1;SDS_P2;PMS_P1;PMS_P2;Temp;Humidity;BMP_temperature;BMP_pressure;BME280_temperature;BME280_humidity;BME280_pressure;Samples;Min_cycle;Max_cycle;Signal;HPM_P1;HPM_P2
2023/12/21 00:00:49;;;;;;;;;3.00;2.00;;;;;9.65;98.73;100563.81;4941310;28;9963;-66
2023/12/21 00:03:17;;;;;;;;;1.75;1.00;;;;;9.61;99.02;100558.00;4953575;28;9940;-66
2023/12/21 00:05:44;;;;;;;;;4.50;3.00;;;;;9.60;98.93;100553.66;4954181;28;10029;-66
2023/12/21 00:08:10;;;;;;;;;3.50;2.00;;;;;9.62;98.56;100545.38;4952207;28;10678;-65
2023/12/21 00:10:37;;;;;;;;;2.50;0.50;;;;;9.61;98.72;100547.25;4950329;28;10090;-66
2023/12/21 00:13:03;;;;;;;;;2.75;2.00;;;;;9.65;98.66;100542.31;4952913;28;9998;-66
2023/12/21 00:15:30;;;;;;;;;1.00;1.00;;;;;9.61;98.71;100552.63;4968811;28;9867;-66
2023/12/21 00:17:56;;;;;;;;;1.50;1.00;;;;;9.63;98.89;100539.81;4948908;28;9867;-66
2023/12/21 00:20:23;;;;;;;;;3.50;1.00;;;;;9.72;98.32;100520.84;4954010;28;9860;-65
2023/12/21 00:22:50;;;;;;;;;5.25;2.00;;;;;9.73;98.37;100514.47;4954293;28;10163;-66
2023/12/21 00:25:16;;;;;;;;;2.50;1.00;;;;;9.70;98.46;100521.03;4953957;28;9910;-66
2023/12/21 00:27:43;;;;;;;;;2.00;1.00;;;;;9.71;98.35;100509.25;4950806;28;10567;-66
2023/12/21 00:30:10;;;;;;;;;1.00;1.00;;;;;9.74;98.47;100497.31;4950760;28;9944;-66
2023/12/21 00:32:37;;;;;;;;;1.75;1.75;;;;;9.76;97.94;100487.16;4947098;28;10656;-66
2023/12/21 00:35:04;;;;;;;;;1.25;1.00;;;;;9.76;97.91;100479.94;4960864;28;10101;-66
2023/12/21 00:37:36;;;;;;;;;1.25;1.00;;;;;9.71;98.19;100466.25;4954089;28;10006;-65
2023/12/21 00:40:06;;;;;;;;;2.00;2.00;;;;;9.62;98.40;100457.53;4934847;29;10139;-66
2023/12/21 00:42:33;;;;;;;;;2.25;1.75;;;;;9.56;99.10;100468.22;4939153;28;9953;-66
2023/12/21 00:44:59;;;;;;;;;1.50;1.50;;;;;9.63;99.30;100456.50;4951603;28;10040;-66
2023/12/21 00:47:26;;;;;;;;;4.50;1.75;;;;;9.65;99.08;100445.56;4949483;28;10163;-65
2023/12/21 00:49:52;;;;;;;;;2.00;2.00;;;;;9.71;98.85;100442.06;4951919;28;10867;-65
2023/12/21 00:52:19;;;;;;;;;5.25;4.50;;;;;9.66;98.60;100428.41;4952806;28;10033;-65
2023/12/21 00:54:45;;;;;;;;;1.00;1.00;;;;;9.63;98.89;100424.25;4953304;28;9862;-66
2023/12/21 00:57:12;;;;;;;;;3.75;1.00;;;;;9.64;99.17;100427.75;4951015;28;10063;-66
2023/12/21 00:59:38;;;;;;;;;2.00;2.00;;;;;9.61;99.05;100418.25;4942576;28;10024;-65
2023/12/21 01:02:06;;;;;;;;;1.00;1.00;;;;;9.62;99.03;100430.66;4951211;28;10080;-65
2023/12/21 01:04:33;;;;;;;;;2.00;2.00;;;;;9.70;98.69;100436.91;4949213;28;9869;-66
2023/12/21 01:07:01;;;;;;;;;4.00;2.75;;;;;9.68;98.79;100422.81;4951645;28;9907;-66
2023/12/21 01:09:27;;;;;;;;;2.25;1.25;;;;;9.72;98.67;100421.41;4953310;28;9870;-65
2023/12/21 01:11:54;;;;;;;;;2.75;1.75;;;;;9.73;98.46;100413.16;4952412;28;9864;-66
2023/12/21 01:14:21;;;;;;;;;2.50;2.00;;;;;9.71;98.68;100417.88;4941549;28;9939;-66
2023/12/21 01:16:48;;;;;;;;;3.75;2.50;;;;;9.68;98.43;100409.38;4947871;28;9938;-66
2023/12/21 01:19:15;;;;;;;;;2.50;1.75;;;;;9.63;99.16;100405.44;4946910;28;9962;-66
2023/12/21 01:21:42;;;;;;;;;3.00;2.00;;;;;9.59;99.05;100406.84;4952037;28;9974;-66
2023/12/21 01:24:08;;;;;;;;;3.25;1.75;;;;;9.63;99.19;100402.75;4950556;28;10007;-66
2023/12/21 01:26:34;;;;;;;;;3.00;2.00;;;;;9.60;99.40;100399.63;4950967;28;9944;-66
2023/12/21 01:29:01;;;;;;;;;1.50;1.25;;;;;9.59;99.09;100390.75;4951329;28;9923;-65
2023/12/21 01:31:27;;;;;;;;;3.00;1.75;;;;;9.59;99.66;100379.16;4935558;28;10046;-66
2023/12/21 01:33:54;;;;;;;;;0.75;0.75;;;;;9.65;99.15;100381.06;4948849;28;9756;-66
2023/12/21 01:36:21;;;;;;;;;1.00;1.00;;;;;9.72;99.23;100384.59;4951141;28;9984;-65
2023/12/21 01:38:47;;;;;;;;;3.50;2.75;;;;;9.66;98.76;100380.84;4949620;28;9887;-66
2023/12/21 01:41:14;;;;;;;;;5.50;2.75;;;;;9.63;98.92;100381.25;4949695;28;9957;-66
2023/12/21 01:43:40;;;;;;;;;2.75;1.00;;;;;9.69;99.24;100376.94;4945938;28;10086;-66
2023/12/21 01:46:07;;;;;;;;;3.00;0.50;;;;;9.75;98.77;100378.81;4949407;28;9932;-66
2023/12/21 01:48:35;;;;;;;;;2.00;1.00;;;;;9.74;98.37;100381.72;4952482;28;9849;-66
2023/12/21 01:51:04;;;;;;;;;3.00;3.00;;;;;9.73;98.54;100385.44;4950275;28;9917;-66
2023/12/21 01:53:32;;;;;;;;;2.50;2.50;;;;;9.74;98.69;100374.47;4950874;28;9938;-66
2023/12/21 01:56:00;;;;;;;;;2.75;2.00;;;;;9.71;98.25;100349.88;4951275;28;9896;-66
2023/12/21 01:58:27;;;;;;;;;2.25;1.50;;;;;9.66;98.99;100350.47;4952756;28;9927;-66
2023/12/21 02:00:57;;;;;;;;;2.25;1.00;;;;;9.61;98.94;100353.75;4951004;28;9877;-66
2023/12/21 02:03:28;;;;;;;;;1.00;0.75;;;;;9.63;99.41;100357.06;4942635;28;9904;-66
2023/12/21 02:05:54;;;;;;;;;5.25;1.00;;;;;9.63;99.06;100342.81;4950247;28;9943;-66
2023/12/21 02:08:21;;;;;;;;;3.25;1.50;;;;;9.61;99.27;100332.25;4952560;28;10045;-66
2023/12/21 02:10:47;;;;;;;;;2.50;2.50;;;;;9.53;99.57;100337.81;4952281;28;9942;-66
2023/12/21 02:13:15;;;;;;;;;2.25;1.50;;;;;9.61;99.34;100352.94;4972506;23;10098;-67
2023/12/21 02:15:42;;;;;;;;;2.50;1.25;;;;;9.66;99.35;100339.72;4958757;28;9983;-68
2023/12/21 02:18:11;;;;;;;;;5.00;2.00;;;;;9.74;98.72;100326.09;4943898;28;9941;-67
2023/12/21 02:20:39;;;;;;;;;2.75;2.75;;;;;9.72;98.83;100320.09;4933862;28;9970;-69
2023/12/21 02:23:07;;;;;;;;;1.25;1.25;;;;;9.77;98.51;100319.50;4930300;28;10223;-69
2023/12/21 02:25:35;;;;;;;;;3.50;3.50;;;;;9.76;98.10;100301.69;4951696;28;9964;-69
2023/12/21 02:28:02;;;;;;;;;1.75;0.75;;;;;9.75;98.46;100305.44;4942629;29;9887;-69
2023/12/21 02:30:28;;;;;;;;;2.25;2.25;;;;;9.77;98.39;100295.31;4952135;29;9864;-66
2023/12/21 02:32:56;;;;;;;;;2.00;1.00;;;;;9.78;98.22;100297.78;4934096;29;10063;-69
2023/12/21 02:35:23;;;;;;;;;3.00;2.00;;;;;9.76;98.26;100290.94;4945801;29;10197;-67
2023/12/21 02:37:49;;;;;;;;;1.75;1.50;;;;;9.77;97.95;100303.38;4943112;29;10112;-68
2023/12/21 02:40:16;;;;;;;;;1.00;0.50;;;;;9.78;98.39;100300.47;4952447;29;10039;-69
2023/12/21 02:42:42;;;;;;;;;2.00;2.00;;;;;9.64;98.44;100301.44;4933847;29;10051;-68
2023/12/21 02:45:09;;;;;;;;;4.00;1.25;;;;;9.71;98.79;100293.44;4942520;29;11104;-68
2023/12/21 02:47:36;;;;;;;;;2.25;2.25;;;;;9.61;99.22;100283.91;4947666;28;9937;-70
2023/12/21 02:50:02;;;;;;;;;2.00;2.00;;;;;9.72;99.08;100271.72;4950829;29;9875;-70
2023/12/21 02:52:29;;;;;;;;;1.00;1.00;;;;;9.67;98.54;100268.81;4950694;28;10171;-69
2023/12/21 02:54:56;;;;;;;;;1.00;1.00;;;;;9.63;98.92;100254.13;4950717;29;10037;-70
2023/12/21 02:57:23;;;;;;;;;2.25;2.00;;;;;9.53;99.63;100232.19;4934875;28;9989;-70
2023/12/21 02:59:49;;;;;;;;;1.00;0.75;;;;;9.63;99.24;100225.38;4951480;28;10109;-66
2023/12/21 03:02:16;;;;;;;;;4.00;2.50;;;;;9.66;98.75;100208.88;4939151;29;9905;-67
2023/12/21 03:04:42;;;;;;;;;2.00;2.00;;;;;9.64;98.96;100193.97;4945854;28;10943;-68
2023/12/21 03:07:09;;;;;;;;;3.00;2.00;;;;;9.57;98.88;100191.28;4953367;28;10107;-68
2023/12/21 03:09:35;;;;;;;;;3.00;1.00;;;;;9.60;99.37;100179.28;4937296;28;10050;-68
2023/12/21 03:12:02;;;;;;;;;1.50;1.50;;;;;9.73;99.06;100178.50;4955386;28;9874;-67
2023/12/21 03:14:28;;;;;;;;;2.00;1.00;;;;;9.77;98.57;100185.13;4952544;28;10181;-68
2023/12/21 03:16:55;;;;;;;;;2.25;2.00;;;;;9.75;98.29;100190.69;4950890;28;10095;-68
2023/12/21 03:19:21;;;;;;;;;1.00;1.00;;;;;9.76;98.46;100194.19;4955534;28;10005;-66
2023/12/21 03:21:48;;;;;;;;;1.75;1.75;;;;;9.81;98.30;100176.44;4955383;28;10056;-65
2023/12/21 03:24:14;;;;;;;;;2.75;2.50;;;;;9.76;98.29;100170.81;4950352;28;10736;-66
2023/12/21 03:26:43;;;;;;;;;2.00;2.00;;;;;9.73;98.38;100170.44;4945152;28;10127;-67
2023/12/21 03:29:09;;;;;;;;;1.00;1.00;;;;;9.70;98.96;100176.22;4953441;28;10048;-68
2023/12/21 03:31:36;;;;;;;;;3.00;1.25;;;;;9.66;98.82;100176.63;4955023;28;10031;-68
2023/12/21 03:34:02;;;;;;;;;0.75;0.75;;;;;9.71;99.01;100159.06;4955460;28;9934;-69
2023/12/21 03:36:29;;;;;;;;;9.50;1.75;;;;;9.76;98.73;100161.94;4947257;29;9932;-65
2023/12/21 03:38:56;;;;;;;;;2.75;1.50;;;;;9.70;99.04;100149.34;4950358;28;10943;-64
2023/12/21 03:41:22;;;;;;;;;4.75;2.25;;;;;9.63;99.38;100149.31;4955742;28;9993;-63
2023/12/21 03:43:48;;;;;;;;;1.00;1.00;;;;;9.64;99.67;100159.03;4960534;28;10213;-67
2023/12/21 03:46:15;;;;;;;;;2.00;1.00;;;;;9.62;99.61;100145.81;4957347;28;9977;-63
2023/12/21 03:48:42;;;;;;;;;3.00;2.00;;;;;9.64;99.51;100149.13;4939869;28;9888;-64
2023/12/21 03:51:08;;;;;;;;;1.50;1.50;;;;;9.68;99.31;100144.16;4953789;28;9947;-63
2023/12/21 03:53:35;;;;;;;;;2.25;1.50;;;;;9.70;98.80;100128.66;4946867;28;9983;-67
2023/12/21 03:56:01;;;;;;;;;3.00;1.00;;;;;9.74;98.74;100113.78;4954681;28;10189;-64
2023/12/21 03:58:28;;;;;;;;;2.50;1.00;;;;;9.74;98.61;100104.91;4954477;28;9775;-66
2023/12/21 04:00:54;;;;;;;;;5.00;3.00;;;;;9.71;98.73;100111.50;4936137;28;9953;-62
2023/12/21 04:03:21;;;;;;;;;2.00;1.00;;;;;9.69;99.26;100104.69;4945033;29;9956;-66
2023/12/21 04:05:47;;;;;;;;;5.00;2.00;;;;;9.74;98.87;100068.09;4952512;28;9957;-64
2023/12/21 04:08:15;;;;;;;;;2.50;2.00;;;;;9.69;99.10;100046.41;4937236;28;9882;-64
2023/12/21 04:10:41;;;;;;;;;1.75;1.00;;;;;9.68;99.22;100055.47;4936419;28;10084;-65
2023/12/21 04:13:08;;;;;;;;;2.25;1.00;;;;;9.63;99.29;100039.16;4954169;28;10063;-64
2023/12/21 04:15:34;;;;;;;;;1.75;1.75;;;;;9.61;100.00;100027.81;4921039;28;10062;-65
2023/12/21 04:18:01;;;;;;;;;3.00;2.00;;;;;9.59;100.00;100029.84;4953219;28;10104;-65
2023/12/21 04:20:28;;;;;;;;;2.00;2.00;;;;;9.66;100.00;100033.38;4953440;28;9904;-66
2023/12/21 04:22:54;;;;;;;;;4.00;1.75;;;;;9.70;99.63;100023.84;4947011;28;9799;-63
2023/12/21 04:25:22;;;;;;;;;3.00;1.25;;;;;9.72;99.42;100010.19;4950680;28;9886;-64
2023/12/21 04:27:48;;;;;;;;;3.00;1.00;;;;;9.75;99.36;100012.47;4946491;28;10034;-64
2023/12/21 04:30:15;;;;;;;;;4.50;2.00;;;;;9.77;99.33;100003.19;4953796;28;10045;-65
2023/12/21 04:32:42;;;;;;;;;3.00;0.00;;;;;9.76;99.56;100009.56;4953949;28;10016;-63
2023/12/21 04:35:10;;;;;;;;;1.50;1.50;;;;;9.70;99.32;100010.41;4935533;28;10615;-64
2023/12/21 04:37:36;;;;;;;;;2.25;1.25;;;;;9.65;99.91;100005.69;4949182;28;10123;-67
2023/12/21 04:40:03;;;;;;;;;3.00;1.25;;;;;9.71;99.96;100005.88;4933194;28;10062;-64
2023/12/21 04:42:31;;;;;;;;;2.25;1.00;;;;;9.69;99.54;99999.88;4953668;28;10074;-63
2023/12/21 04:44:57;;;;;;;;;1.00;1.00;;;;;9.61;100.00;100009.81;4953445;28;10736;-65
2023/12/21 04:47:24;;;;;;;;;0.50;0.00;;;;;9.69;99.85;100024.91;4935498;28;10587;-64
2023/12/21 04:49:51;;;;;;;;;0.00;0.00;;;;;9.79;99.63;100017.22;4950768;28;9878;-66
2023/12/21 04:52:18;;;;;;;;;0.50;0.50;;;;;9.76;99.55;100012.25;4948111;28;10631;-63
2023/12/21 04:54:44;;;;;;;;;2.25;1.00;;;;;9.77;99.64;99984.38;4949574;28;9942;-67
2023/12/21 04:57:11;;;;;;;;;2.00;2.00;;;;;9.76;99.39;99976.50;4953760;28;10046;-66
2023/12/21 04:59:42;;;;;;;;;2.00;1.75;;;;;9.74;99.54;99976.72;4950229;28;9913;-65
2023/12/21 05:02:08;;;;;;;;;2.25;1.00;;;;;9.73;100.00;99980.44;4952062;28;9946;-63
2023/12/21 05:04:34;;;;;;;;;1.00;1.00;;;;;9.79;100.00;99973.41;4932899;28;9869;-68
2023/12/21 05:07:08;;;;;;;;;1.25;1.00;;;;;9.75;99.74;99954.16;4961441;28;9940;-65
2023/12/21 05:09:35;;;;;;;;;2.50;1.75;;;;;9.73;100.00;99956.25;4954895;28;10865;-65
2023/12/21 05:12:02;;;;;;;;;2.00;1.50;;;;;9.80;100.00;99957.06;4935940;28;10078;-64
2023/12/21 05:14:28;;;;;;;;;0.00;0.00;;;;;9.80;100.00;99959.75;4949255;28;9936;-65
2023/12/21 05:16:55;;;;;;;;;1.75;1.00;;;;;9.75;100.00;99938.03;4952453;28;9835;-65
2023/12/21 05:19:21;;;;;;;;;1.00;1.00;;;;;9.74;100.00;99952.53;4953229;28;10645;-65
2023/12/21 05:21:48;;;;;;;;;2.50;1.00;;;;;9.72;100.00;99973.41;4952569;28;10511;-65
2023/12/21 05:24:14;;;;;;;;;1.75;0.75;;;;;9.72;100.00;99973.41;4935842;28;9944;-64
2023/12/21 05:26:41;;;;;;;;;1.00;0.00;;;;;9.71;100.00;99960.19;4949157;28;9881;-65
2023/12/21 05:29:07;;;;;;;;;0.50;0.50;;;;;9.69;100.00;99941.59;4930127;28;9975;-68
2023/12/21 05:31:34;;;;;;;;;2.25;1.00;;;;;9.70;100.00;99931.66;4951958;28;9988;-65
2023/12/21 05:34:01;;;;;;;;;3.25;2.00;;;;;9.65;100.00;99933.13;4952763;28;10522;-64
2023/12/21 05:36:27;;;;;;;;;2.50;2.00;;;;;9.70;100.00;99937.84;4951055;28;10024;-68
2023/12/21 05:38:54;;;;;;;;;1.25;1.00;;;;;9.67;100.00;99927.53;4952925;28;9871;-65
2023/12/21 05:41:20;;;;;;;;;1.00;1.00;;;;;9.68;100.00;99934.53;4951949;28;10567;-65
2023/12/21 05:43:47;;;;;;;;;1.00;1.00;;;;;9.69;100.00;99930.84;4937264;28;9873;-65
2023/12/21 05:46:13;;;;;;;;;1.00;1.00;;;;;9.62;100.00;99933.53;4935433;28;9871;-65
2023/12/21 05:48:40;;;;;;;;;1.50;1.00;;;;;9.60;100.00;99926.72;4934437;28;10586;-67
2023/12/21 05:51:07;;;;;;;;;1.25;1.25;;;;;9.61;100.00;99923.00;4934495;28;9791;-65
2023/12/21 05:53:33;;;;;;;;;2.25;1.00;;;;;9.66;100.00;99932.06;4952305;28;9799;-64
2023/12/21 05:56:00;;;;;;;;;3.00;3.00;;;;;9.65;100.00;99926.94;4952086;28;9878;-65
2023/12/21 05:58:26;;;;;;;;;1.50;1.00;;;;;9.70;100.00;99894.88;4938288;28;9885;-67
2023/12/21 06:00:53;;;;;;;;;2.75;0.50;;;;;9.71;100.00;99898.38;4949508;28;9806;-65
2023/12/21 06:03:20;;;;;;;;;1.00;1.00;;;;;9.71;100.00;99899.19;4960378;28;9980;-63
2023/12/21 06:05:47;;;;;;;;;1.00;1.00;;;;;9.73;100.00;99880.19;4952139;28;9881;-66
2023/12/21 06:08:13;;;;;;;;;0.50;0.50;;;;;9.73;100.00;99883.69;4952431;28;9701;-64
2023/12/21 06:10:40;;;;;;;;;2.00;0.00;;;;;9.69;100.00;99852.09;4946930;28;9979;-64
2023/12/21 06:13:07;;;;;;;;;1.00;1.00;;;;;9.69;100.00;99846.72;4944522;28;9886;-67
2023/12/21 06:15:34;;;;;;;;;2.25;0.75;;;;;9.68;100.00;99848.56;4950408;28;9767;-65
2023/12/21 06:18:00;;;;;;;;;2.00;2.00;;;;;9.68;100.00;99840.50;4952416;28;9857;-63
2023/12/21 06:20:27;;;;;;;;;0.00;0.00;;;;;9.79;100.00;99826.41;4946423;28;9963;-67
2023/12/21 06:22:54;;;;;;;;;2.00;1.00;;;;;9.83;99.97;99808.81;4934998;28;9790;-64
2023/12/21 06:25:20;;;;;;;;;2.00;1.00;;;;;9.76;99.60;99812.56;4952149;28;9944;-63
2023/12/21 06:27:47;;;;;;;;;0.25;0.25;;;;;9.78;99.47;99800.56;4944167;28;10083;-65
2023/12/21 06:30:14;;;;;;;;;2.00;2.00;;;;;9.79;99.20;99788.75;4933884;29;9957;-65
2023/12/21 06:32:40;;;;;;;;;3.00;3.00;;;;;9.77;99.37;99782.81;4949481;28;10117;-64
2023/12/21 06:35:07;;;;;;;;;0.00;0.00;;;;;9.83;99.29;99784.59;4950197;29;9974;-64
2023/12/21 06:37:34;;;;;;;;;1.00;1.00;;;;;9.84;98.77;99780.06;4948823;28;9862;-65
2023/12/21 06:40:04;;;;;;;;;1.00;1.00;;;;;9.87;98.24;99768.88;4943416;29;9854;-64
2023/12/21 06:42:31;;;;;;;;;1.00;1.00;;;;;9.86;98.46;99773.44;4949992;28;9826;-65
2023/12/21 06:44:57;;;;;;;;;1.00;1.00;;;;;9.81;98.66;99761.69;4929581;28;9781;-63
2023/12/21 06:47:24;;;;;;;;;2.50;1.75;;;;;9.80;98.53;99763.56;4953615;28;10611;-67
2023/12/21 06:49:50;;;;;;;;;1.00;1.00;;;;;9.80;98.78;99743.91;4952770;28;9792;-67
2023/12/21 06:52:17;;;;;;;;;4.00;3.00;;;;;9.80;98.58;99738.53;4949170;28;9724;-64
2023/12/21 06:54:43;;;;;;;;;2.00;2.00;;;;;9.78;99.19;99741.44;4954255;28;9955;-64
2023/12/21 06:57:10;;;;;;;;;2.00;1.75;;;;;9.77;98.96;99731.72;4942047;28;9617;-70
2023/12/21 06:59:37;;;;;;;;;3.00;1.50;;;;;9.75;99.82;99722.22;4966245;28;9634;-66
2023/12/21 07:02:03;;;;;;;;;1.00;1.00;;;;;9.78;99.38;99714.56;4939786;28;9730;-64
2023/12/21 07:04:30;;;;;;;;;5.50;1.75;;;;;9.84;99.51;99721.78;4963328;28;9849;-70
2023/12/21 07:06:58;;;;;;;;;2.00;1.00;;;;;9.87;99.39;99717.81;4955136;28;9744;-68
2023/12/21 07:09:24;;;;;;;;;2.50;1.50;;;;;9.81;99.93;99703.38;4955210;28;10469;-68
2023/12/21 07:11:51;;;;;;;;;3.75;1.00;;;;;9.78;100.00;99711.88;4938129;28;9684;-65
2023/12/21 07:14:17;;;;;;;;;4.50;4.00;;;;;9.78;100.00;99719.13;4954899;28;9775;-65
2023/12/21 07:16:44;;;;;;;;;1.50;1.00;;;;;9.81;100.00;99713.31;4937320;28;9790;-65
2023/12/21 07:19:11;;;;;;;;;1.00;1.00;;;;;9.76;100.00;99710.44;4938347;28;9795;-66
2023/12/21 07:21:37;;;;;;;;;3.00;2.00;;;;;9.79;100.00;99718.06;4937680;28;10862;-64
2023/12/21 07:24:04;;;;;;;;;4.00;2.00;;;;;9.68;100.00;99697.25;4937324;28;9905;-63
2023/12/21 07:26:31;;;;;;;;;3.50;1.75;;;;;9.65;100.00;99690.47;4954551;28;9941;-68
2023/12/21 07:28:57;;;;;;;;;1.25;1.25;;;;;9.59;100.00;99669.81;4955214;28;9941;-65
2023/12/21 07:31:24;;;;;;;;;2.00;2.00;;;;;9.56;100.00;99681.84;4954605;28;9814;-65
2023/12/21 07:33:51;;;;;;;;;2.25;1.00;;;;;9.56;100.00;99697.97;4954952;28;10043;-65
2023/12/21 07:36:17;;;;;;;;;1.50;1.50;;;;;9.60;100.00;99707.25;4953761;28;9929;-66
2023/12/21 07:38:44;;;;;;;;;2.00;1.50;;;;;9.66;100.00;99711.75;4959764;28;9953;-65
2023/12/21 07:41:11;;;;;;;;;1.25;1.25;;;;;9.70;100.00;99698.69;4959217;28;10080;-65
2023/12/21 07:43:38;;;;;;;;;1.25;1.25;;;;;9.72;100.00;99696.59;4965263;28;10092;-65
2023/12/21 07:46:05;;;;;;;;;1.50;1.00;;;;;9.63;100.00;99698.72;4954027;28;9898;-64
2023/12/21 07:48:35;;;;;;;;;4.25;2.25;;;;;9.58;100.00;99687.81;4964563;28;9868;-66
2023/12/21 07:51:01;;;;;;;;;4.00;2.75;;;;;9.63;100.00;99689.84;4962600;28;10151;-66
2023/12/21 07:53:28;;;;;;;;;3.25;2.00;;;;;9.69;100.00;99698.94;4953696;28;10210;-66
2023/12/21 07:55:54;;;;;;;;;4.50;2.00;;;;;9.66;100.00;99694.78;4953560;28;10024;-65
2023/12/21 07:58:21;;;;;;;;;1.25;1.25;;;;;9.66;100.00;99702.84;4954805;28;10082;-65
2023/12/21 08:00:47;;;;;;;;;3.75;1.50;;;;;9.75;100.00;99677.38;4937147;28;10579;-65
2023/12/21 08:03:14;;;;;;;;;1.75;0.75;;;;;9.76;100.00;99659.38;4954235;28;9894;-67
2023/12/21 08:05:40;;;;;;;;;1.50;1.50;;;;;9.65;100.00;99663.59;4936628;28;10777;-66
2023/12/21 08:08:07;;;;;;;;;2.75;2.00;;;;;9.68;100.00;99649.72;4954528;28;9860;-66
2023/12/21 08:10:33;;;;;;;;;1.25;1.00;;;;;9.70;100.00;99653.00;4954522;28;9941;-65
2023/12/21 08:13:00;;;;;;;;;1.00;1.00;;;;;9.79;100.00;99669.69;4937634;28;9926;-66
2023/12/21 08:15:27;;;;;;;;;2.00;1.00;;;;;9.81;100.00;99660.38;4954090;28;9982;-66
2023/12/21 08:17:56;;;;;;;;;1.75;1.75;;;;;9.82;100.00;99648.59;4953827;28;10000;-65
2023/12/21 08:20:23;;;;;;;;;2.00;1.25;;;;;9.83;100.00;99647.53;4937374;28;9797;-67
2023/12/21 08:22:49;;;;;;;;;4.00;1.75;;;;;9.85;100.00;99650.84;4953672;28;9867;-66
2023/12/21 08:25:17;;;;;;;;;6.00;1.00;;;;;9.80;100.00;99634.56;4919672;29;9959;-66
2023/12/21 08:27:43;;;;;;;;;1.75;1.25;;;;;9.82;100.00;99626.25;4935093;29;10004;-65
2023/12/21 08:30:10;;;;;;;;;1.00;1.00;;;;;9.85;100.00;99650.84;4931452;28;10633;-66
2023/12/21 08:32:37;;;;;;;;;1.00;1.00;;;;;9.86;100.00;99633.66;4936662;28;9756;-66
2023/12/21 08:35:04;;;;;;;;;1.00;1.00;;;;;9.91;100.00;99630.31;4936662;28;9867;-67
2023/12/21 08:37:31;;;;;;;;;2.00;1.50;;;;;9.94;100.00;99629.88;4953972;28;9939;-67
2023/12/21 08:39:58;;;;;;;;;3.25;2.00;;;;;9.94;100.00;99631.75;4937020;28;9882;-66
2023/12/21 08:42:26;;;;;;;;;0.00;0.00;;;;;9.89;100.00;99633.25;4936462;28;9820;-67
2023/12/21 08:44:53;;;;;;;;;2.00;1.75;;;;;9.89;100.00;99619.78;4936732;28;9631;-67
2023/12/21 08:47:20;;;;;;;;;2.25;2.25;;;;;9.91;100.00;99612.31;4953705;28;9956;-66
2023/12/21 08:49:46;;;;;;;;;2.25;1.00;;;;;9.90;100.00;99607.19;4953437;28;9925;-66
2023/12/21 08:52:13;;;;;;;;;0.00;0.00;;;;;9.90;100.00;99602.63;4953631;28;10509;-66
2023/12/21 08:54:41;;;;;;;;;1.00;1.00;;;;;9.87;100.00;99591.47;4953268;28;9928;-67
2023/12/21 08:57:09;;;;;;;;;5.25;2.75;;;;;9.90;100.00;99604.50;4936537;28;9783;-67
2023/12/21 08:59:36;;;;;;;;;3.00;2.00;;;;;9.89;100.00;99600.97;4953478;28;10614;-67
2023/12/21 09:02:02;;;;;;;;;0.00;0.00;;;;;9.90;100.00;99605.31;4951173;28;9817;-66
2023/12/21 09:04:29;;;;;;;;;1.50;0.50;;;;;9.91;100.00;99598.88;4952886;28;9803;-66
2023/12/21 09:06:56;;;;;;;;;2.00;0.25;;;;;9.93;100.00;99592.47;4963311;28;9633;-67
2023/12/21 09:09:22;;;;;;;;;2.00;1.00;;;;;9.96;100.00;99587.47;4961219;28;9696;-66
2023/12/21 09:11:49;;;;;;;;;3.00;1.25;;;;;10.02;100.00;99593.84;4964679;28;9644;-67
2023/12/21 09:14:15;;;;;;;;;4.75;1.50;;;;;10.08;100.00;99582.19;4953979;28;9772;-65
2023/12/21 09:16:42;;;;;;;;;0.00;0.00;;;;;10.06;100.00;99584.28;4936245;28;9554;-65
2023/12/21 09:19:09;;;;;;;;;0.00;0.00;;;;;10.10;100.00;99586.31;4953467;28;10196;-66
2023/12/21 09:21:37;;;;;;;;;1.75;1.00;;;;;10.21;100.00;99594.66;4953132;28;9579;-65
2023/12/21 09:24:04;;;;;;;;;1.75;1.00;;;;;10.20;100.00;99575.03;4952341;28;9650;-65
2023/12/21 09:26:33;;;;;;;;;1.00;1.00;;;;;10.12;100.00;99580.69;4920576;28;9577;-66
2023/12/21 09:29:03;;;;;;;;;0.00;0.00;;;;;10.12;100.00;99570.75;4920038;28;9642;-66
2023/12/21 09:31:31;;;;;;;;;4.25;1.00;;;;;10.19;100.00;99581.47;4952759;28;9634;-65
2023/12/21 09:33:59;;;;;;;;;1.00;0.00;;;;;10.18;100.00;99595.13;4952878;28;9691;-65
2023/12/21 09:36:26;;;;;;;;;1.00;0.00;;;;;10.16;100.00;99558.50;4936045;28;9711;-64
2023/12/21 09:38:52;;;;;;;;;6.25;1.00;;;;;10.13;100.00;99577.81;4952720;28;10302;-65
2023/12/21 09:41:18;;;;;;;;;0.00;0.00;;;;;10.16;100.00;99563.88;4952823;28;9561;-68
2023/12/21 09:43:47;;;;;;;;;1.50;1.00;;;;;10.14;100.00;99559.78;4952501;28;9651;-66
2023/12/21 09:46:15;;;;;;;;;1.00;1.00;;;;;10.16;100.00;99555.00;4952567;28;9558;-64
2023/12/21 09:48:44;;;;;;;;;1.00;0.00;;;;;10.22;100.00;99539.88;4952590;28;9534;-66
2023/12/21 09:51:14;;;;;;;;;3.75;2.00;;;;;10.25;100.00;99586.00;4952532;28;10330;-65
2023/12/21 09:53:41;;;;;;;;;1.00;1.00;;;;;10.29;100.00;99580.97;4952573;28;9540;-64
2023/12/21 09:56:08;;;;;;;;;1.25;1.25;;;;;10.32;100.00;99583.22;4952005;28;9732;-64
2023/12/21 09:58:35;;;;;;;;;1.75;1.00;;;;;10.32;100.00;99577.84;4950465;28;9481;-66
2023/12/21 10:01:01;;;;;;;;;3.25;1.00;;;;;10.29;100.00;99563.00;4950270;28;9554;-65
2023/12/21 10:03:28;;;;;;;;;2.25;1.00;;;;;10.28;100.00;99580.16;4961434;28;9640;-65
2023/12/21 10:05:55;;;;;;;;;1.00;1.00;;;;;10.29;100.00;99568.38;4966118;28;10226;-64
2023/12/21 10:08:21;;;;;;;;;0.00;0.00;;;;;10.38;100.00;99571.56;4965125;28;10509;-69
2023/12/21 10:10:48;;;;;;;;;0.00;0.00;;;;;10.45;100.00;99584.94;4962115;28;9840;-67
2023/12/21 10:13:15;;;;;;;;;2.75;2.00;;;;;10.43;100.00;99563.66;4963393;28;9628;-68
2023/12/21 10:15:42;;;;;;;;;0.25;0.00;;;;;10.52;100.00;99558.78;4950231;28;9532;-66
2023/12/21 10:18:11;;;;;;;;;2.50;2.50;;;;;10.47;100.00;99547.88;4962861;28;9472;-64
2023/12/21 10:20:39;;;;;;;;;0.75;0.75;;;;;10.47;100.00;99574.78;4954971;28;9743;-66
2023/12/21 10:23:07;;;;;;;;;2.00;0.00;;;;;10.50;100.00;99548.25;4952187;28;9830;-66
2023/12/21 10:25:36;;;;;;;;;1.00;1.00;;;;;10.48;100.00;99552.22;4952335;28;9477;-65
2023/12/21 10:28:04;;;;;;;;;1.25;1.00;;;;;10.42;100.00;99540.50;4952230;28;9576;-65
2023/12/21 10:30:31;;;;;;;;;2.25;2.25;;;;;10.43;100.00;99536.75;4950071;28;9732;-66
2023/12/21 10:32:57;;;;;;;;;1.00;1.00;;;;;10.45;100.00;99556.19;4961111;28;9649;-65
2023/12/21 10:35:26;;;;;;;;;1.25;1.00;;;;;10.51;100.00;99562.53;4928585;28;9544;-66
2023/12/21 10:37:53;;;;;;;;;2.00;2.00;;;;;10.48;100.00;99546.81;4943799;28;9621;-66
2023/12/21 10:40:22;;;;;;;;;1.25;1.25;;;;;10.46;100.00;99546.25;4962102;28;9630;-65
2023/12/21 10:42:51;;;;;;;;;2.25;2.25;;;;;10.51;100.00;99555.28;4937877;28;9703;-66
2023/12/21 10:45:21;;;;;;;;;2.75;0.00;;;;;10.50;100.00;99531.28;4935782;29;9655;-64
2023/12/21 10:48:11;;;;;;;;;0.50;0.50;;;;;10.48;100.00;99528.00;4952370;28;9626;-67
2023/12/21 10:50:38;;;;;;;;;1.75;0.75;;;;;10.42;100.00;99542.34;4943709;28;9681;-65
2023/12/21 10:53:09;;;;;;;;;0.00;0.00;;;;;10.44;100.00;99551.00;4962564;28;9693;-66
2023/12/21 10:55:37;;;;;;;;;1.25;1.25;;;;;10.47;100.00;99519.09;4951514;29;9780;-65
2023/12/21 10:58:06;;;;;;;;;0.50;0.50;;;;;10.55;100.00;99528.75;4952003;29;9621;-66
2023/12/21 11:00:34;;;;;;;;;3.75;2.00;;;;;10.49;100.00;99526.94;4951759;28;9557;-66
2023/12/21 11:03:02;;;;;;;;;2.75;2.75;;;;;10.47;100.00;99523.66;4931955;29;9687;-66
2023/12/21 11:05:31;;;;;;;;;3.50;1.00;;;;;10.49;100.00;99543.06;4958969;28;9853;-68
2023/12/21 11:08:00;;;;;;;;;3.00;1.75;;;;;10.52;100.00;99542.63;4962630;28;9942;-66
2023/12/21 11:10:27;;;;;;;;;1.00;0.25;;;;;10.57;100.00;99538.25;4955274;28;9718;-68
2023/12/21 11:12:53;;;;;;;;;2.00;2.00;;;;;10.56;100.00;99527.69;4951443;28;9699;-66
2023/12/21 11:15:21;;;;;;;;;0.75;0.75;;;;;10.53;100.00;99536.19;4933897;29;9712;-66
2023/12/21 11:18:01;;;;;;;;;3.00;1.00;;;;;10.49;100.00;99516.19;4951726;29;9731;-68
2023/12/21 11:20:32;;;;;;;;;1.25;1.00;;;;;10.51;100.00;99514.09;4934449;29;9625;-66
2023/12/21 11:23:12;;;;;;;;;1.00;0.50;;;;;10.49;100.00;99505.41;4951554;29;10394;-66
2023/12/21 11:25:38;;;;;;;;;5.50;2.00;;;;;10.46;100.00;99505.88;4934245;29;9888;-66
2023/12/21 11:28:06;;;;;;;;;1.25;1.25;;;;;10.57;100.00;99502.41;4953855;28;9570;-65
2023/12/21 11:30:33;;;;;;;;;2.50;1.50;;;;;10.48;100.00;99507.28;4954969;28;9551;-65
2023/12/21 11:33:08;;;;;;;;;1.75;1.75;;;;;10.54;100.00;99498.31;4937891;28;9638;-65
2023/12/21 11:35:36;;;;;;;;;5.50;2.00;;;;;10.51;100.00;99493.38;4954747;28;9585;-65
2023/12/21 11:38:06;;;;;;;;;3.00;2.00;;;;;10.46;100.00;99487.06;4937819;28;9613;-66